Time;durP1;ratioP1;P1;durP2;ratioP2;P2;SDS_P1;SDS_P2;PMS_P1;PMS_P2;Temp;Humidity;BMP_temperature;BMP_pressure;BME280_temperature;BME280_humidity;BME280_pressure;Samples;Min_cycle;Max_cycle;Signal;HPM_P1;HPM_P2
2023/07/15 00:01:14;;;;;;;5.13;2.83;;;20.50;71.70;;;;;;5009926;28;38826;-91
2023/07/15 00:03:40;;;;;;;6.22;2.72;;;20.40;83.70;;;;;;5001119;28;48704;-91
2023/07/15 00:06:08;;;;;;;5.05;2.85;;;20.40;75.80;;;;;;5010927;28;36364;-91
2023/07/15 00:08:35;;;;;;;4.68;2.35;;;20.40;54.80;;;;;;5012895;28;38733;-92
2023/07/15 00:11:01;;;;;;;5.75;2.17;;;20.50;31.30;;;;;;5011131;28;38510;-86
2023/07/15 00:13:29;;;;;;;3.03;2.45;;;20.70;13.10;;;;;;5012289;28;37303;-92
2023/07/15 00:15:57;;;;;;;6.90;2.28;;;20.80;12.60;;;;;;5011781;28;36397;-92
2023/07/15 00:18:23;;;;;;;4.38;2.20;;;20.80;1.00;;;;;;4994790;28;38992;-93
2023/07/15 00:20:50;;;;;;;5.07;2.10;;;20.90;1.00;;;;;;5011366;28;36961;-92
2023/07/15 00:23:22;;;;;;;8.05;2.40;;;21.10;1.00;;;;;;5014980;28;36920;-91
2023/07/15 00:25:50;;;;;;;11.98;2.30;;;21.20;1.00;;;;;;5031861;28;37420;-91
2023/07/15 00:28:25;;;;;;;9.25;2.72;;;21.20;1.00;;;;;;5024091;28;38819;-92
2023/07/15 00:30:56;;;;;;;4.78;2.25;;;21.10;1.00;;;;;;5010642;28;37317;-92
2023/07/15 00:33:29;;;;;;;5.20;2.73;;;21.10;1.00;;;;;;5013742;28;38066;-93
2023/07/15 00:35:55;;;;;;;9.20;2.67;;;21.00;1.00;;;;;;5023304;28;35483;-94
2023/07/15 00:38:29;;;;;;;4.47;2.47;;;21.00;2.10;;;;;;5011787;28;37791;-94
2023/07/15 00:40:56;;;;;;;8.85;2.90;;;20.90;3.80;;;;;;5019211;28;37405;-92
2023/07/15 00:43:58;;;;;;;6.53;2.33;;;20.90;9.30;;;;;;5012871;28;37773;-91
2023/07/15 00:46:43;;;;;;;5.95;2.70;;;21.00;34.50;;;;;;5006123;28;37297;-94
2023/07/15 00:49:16;;;;;;;6.82;2.85;;;20.90;33.90;;;;;;5010811;28;37687;-93
2023/07/15 00:51:48;;;;;;;5.72;2.47;;;20.90;48.20;;;;;;5011416;28;38697;-93
2023/07/15 00:54:15;;;;;;;4.57;2.63;;;20.90;54.10;;;;;;4998069;28;36963;-92
2023/07/15 00:56:49;;;;;;;7.22;2.70;;;20.90;59.50;;;;;;5011658;28;36610;-93
2023/07/15 00:59:29;;;;;;;6.28;2.20;;;20.80;62.50;;;;;;5030211;28;39346;-92
2023/07/15 01:04:28;;;;;;;7.75;2.50;;;20.70;72.20;;;;;;5022252;28;20046;-93
2023/07/15 01:06:54;;;;;;;5.32;2.28;;;20.70;75.80;;;;;;5028726;28;36329;-92
2023/07/15 01:09:28;;;;;;;4.13;2.17;;;20.60;78.90;;;;;;5047075;28;37784;-92
2023/07/15 01:11:55;;;;;;;2.65;2.17;;;20.60;85.60;;;;;;5046290;28;37435;-92
2023/07/15 01:14:21;;;;;;;6.05;2.15;;;20.50;87.80;;;;;;5036685;28;37471;-92
2023/07/15 01:16:49;;;;;;;4.15;2.30;;;20.40;92.80;;;;;;5037523;28;37519;-91
2023/07/15 01:19:31;;;;;;;6.95;2.05;;;20.40;96.60;;;;;;5031899;28;38436;-92
2023/07/15 01:22:08;;;;;;;5.40;2.38;;;20.30;98.30;;;;;;5032513;28;38498;-94
2023/07/15 01:24:35;;;;;;;4.85;2.13;;;20.20;99.90;;;;;;5031057;28;47668;-93
2023/07/15 01:27:07;;;;;;;6.60;2.83;;;20.30;99.90;;;;;;5032806;28;36893;-91
2023/07/15 01:29:34;;;;;;;6.80;2.88;;;20.30;98.70;;;;;;5032542;28;39131;-92
2023/07/15 01:32:00;;;;;;;5.75;2.35;;;20.40;97.70;;;;;;5042461;28;37228;-93
2023/07/15 01:34:33;;;;;;;5.57;2.50;;;20.40;98.60;;;;;;5037957;28;38231;-91
2023/07/15 01:37:11;;;;;;;4.15;2.20;;;20.50;99.00;;;;;;5025404;28;37812;-92
2023/07/15 01:39:40;;;;;;;4.05;2.00;;;20.50;99.80;;;;;;5032123;28;48766;-91
2023/07/15 01:42:06;;;;;;;5.90;2.70;;;20.40;99.90;;;;;;5030360;28;37496;-91
2023/07/15 01:44:32;;;;;;;5.10;2.50;;;20.40;99.90;;;;;;5029438;28;36924;-92
2023/07/15 01:47:12;;;;;;;6.82;2.40;;;20.40;99.90;;;;;;5032316;28;38435;-92
2023/07/15 01:49:38;;;;;;;5.40;2.20;;;20.40;99.90;;;;;;5030563;28;46989;-91
2023/07/15 01:52:18;;;;;;;3.95;2.00;;;20.40;99.90;;;;;;5040314;28;38728;-91
2023/07/15 01:54:53;;;;;;;3.80;1.83;;;20.40;99.90;;;;;;5030953;28;37038;-92
2023/07/15 01:57:20;;;;;;;4.43;1.95;;;20.40;99.90;;;;;;5017233;28;36381;-91
2023/07/15 01:59:47;;;;;;;3.75;1.60;;;20.40;99.90;;;;;;5029488;28;37822;-92
2023/07/15 02:02:13;;;;;;;4.85;1.95;;;20.50;99.90;;;;;;5030428;28;38477;-93
2023/07/15 02:04:39;;;;;;;3.30;1.80;;;20.60;99.90;;;;;;5035223;28;37848;-92
2023/07/15 02:07:05;;;;;;;3.00;1.50;;;20.60;99.90;;;;;;5030826;28;35912;-92
2023/07/15 02:09:36;;;;;;;4.75;1.50;;;20.60;99.90;;;;;;5046020;28;39118;-92
2023/07/15 02:12:03;;;;;;;4.00;1.90;;;20.60;99.90;;;;;;5023035;28;36625;-92
2023/07/15 02:14:29;;;;;;;4.70;1.85;;;20.70;99.90;;;;;;5017288;28;38234;-93
2023/07/15 02:16:55;;;;;;;2.85;1.80;;;20.60;99.90;;;;;;5017162;28;36406;-93
2023/07/15 02:19:22;;;;;;;3.92;2.10;;;20.50;99.90;;;;;;5034870;28;39080;-93
2023/07/15 02:21:49;;;;;;;4.10;2.10;;;20.40;99.90;;;;;;5036104;28;38579;-92
2023/07/15 02:24:22;;;;;;;5.82;2.10;;;20.30;99.90;;;;;;5036476;28;37925;-93
2023/07/15 02:26:48;;;;;;;6.70;2.08;;;20.20;99.90;;;;;;5033497;28;36521;-93
2023/07/15 02:29:15;;;;;;;5.13;2.33;;;20.10;99.90;;;;;;5032897;28;37657;-93
2023/07/15 02:31:42;;;;;;;4.40;2.25;;;20.00;99.90;;;;;;5035280;28;37414;-94
2023/07/15 02:34:09;;;;;;;5.05;2.25;;;20.00;99.90;;;;;;5035890;28;37439;-92
2023/07/15 02:36:35;;;;;;;5.05;2.33;;;19.90;99.90;;;;;;5048441;28;37212;-92
2023/07/15 02:39:04;;;;;;;6.72;2.70;;;19.90;99.90;;;;;;5033814;28;38381;-88
2023/07/15 02:41:32;;;;;;;5.70;2.45;;;19.90;99.90;;;;;;5033159;28;38563;-93
2023/07/15 02:43:59;;;;;;;4.80;2.38;;;19.80;99.90;;;;;;5034207;28;36844;-91
2023/07/15 02:46:38;;;;;;;4.90;2.40;;;19.80;99.90;;;;;;5032765;28;36815;-92
2023/07/15 02:49:23;;;;;;;7.93;2.70;;;19.70;99.90;;;;;;5033103;28;39600;-91
2023/07/15 02:51:52;;;;;;;6.72;2.78;;;19.60;99.90;;;;;;5019037;28;37315;-92
2023/07/15 02:54:20;;;;;;;6.82;2.88;;;19.60;99.90;;;;;;5035111;28;38850;-91
2023/07/15 02:56:53;;;;;;;7.53;2.58;;;19.60;99.90;;;;;;5020991;28;36292;-91
2023/07/15 02:59:19;;;;;;;6.20;2.50;;;19.50;99.90;;;;;;5028934;28;38885;-91
2023/07/15 03:01:46;;;;;;;5.28;2.45;;;19.50;99.90;;;;;;5035171;28;37336;-93
2023/07/15 03:04:12;;;;;;;7.72;2.85;;;19.50;99.90;;;;;;5033424;28;38735;-93
2023/07/15 03:06:41;;;;;;;9.73;2.63;;;19.50;99.90;;;;;;5022476;28;36305;-92
2023/07/15 03:09:19;;;;;;;6.07;2.55;;;19.50;99.90;;;;;;5033866;28;37502;-90
2023/07/15 03:11:45;;;;;;;5.05;2.97;;;19.40;99.90;;;;;;5033483;28;38187;-91
2023/07/15 03:14:11;;;;;;;5.80;2.40;;;19.40;99.90;;;;;;5031315;28;37952;-92
2023/07/15 03:16:38;;;;;;;5.35;2.65;;;19.30;99.90;;;;;;5031584;28;36604;-92
2023/07/15 03:19:04;;;;;;;6.82;2.75;;;19.40;99.90;;;;;;5035569;28;39110;-92
2023/07/15 03:21:30;;;;;;;5.75;2.47;;;19.40;99.90;;;;;;5035397;28;37578;-93
2023/07/15 03:23:56;;;;;;;4.07;2.33;;;19.40;99.90;;;;;;5033664;28;37127;-94
2023/07/15 03:26:28;;;;;;;4.10;2.65;;;19.50;99.90;;;;;;5033193;28;36513;-93
2023/07/15 03:28:54;;;;;;;4.65;2.40;;;19.50;99.90;;;;;;5033691;28;37492;-93
2023/07/15 03:31:21;;;;;;;3.63;2.33;;;19.50;99.90;;;;;;5030963;28;37727;-93
2023/07/15 03:33:50;;;;;;;5.43;2.33;;;19.60;99.90;;;;;;5030296;28;38333;-92
2023/07/15 03:36:17;;;;;;;3.85;2.17;;;19.60;99.90;;;;;;5046285;28;36521;-92
2023/07/15 03:38:43;;;;;;;2.88;1.90;;;19.60;99.90;;;;;;5030708;28;37655;-92
2023/07/15 03:41:09;;;;;;;5.03;2.50;;;19.70;99.90;;;;;;5028179;28;37653;-91
2023/07/15 03:43:36;;;;;;;2.50;1.70;;;19.70;99.90;;;;;;5046488;28;38059;-93
2023/07/15 03:46:03;;;;;;;1.52;1.40;;;19.80;99.90;;;;;;5044743;28;36017;-91
2023/07/15 03:48:33;;;;;;;5.32;2.05;;;19.80;99.90;;;;;;5030750;28;38294;-93
2023/07/15 03:50:59;;;;;;;3.03;1.85;;;19.90;99.90;;;;;;5032471;28;38729;-92
2023/07/15 03:53:28;;;;;;;4.60;2.13;;;19.90;99.90;;;;;;5032038;28;36796;-93
2023/07/15 03:55:54;;;;;;;3.97;1.92;;;19.90;99.90;;;;;;5032478;28;36254;-91
2023/07/15 03:58:32;;;;;;;5.00;2.10;;;19.90;99.90;;;;;;5033478;28;39920;-92
2023/07/15 04:00:58;;;;;;;3.50;1.60;;;19.90;99.90;;;;;;5039058;28;37583;-93
2023/07/15 04:03:26;;;;;;;4.30;1.80;;;20.00;99.90;;;;;;5032039;28;36727;-92
2023/07/15 04:05:58;;;;;;;2.55;1.70;;;20.00;99.90;;;;;;5032078;28;37334;-92
2023/07/15 04:08:57;;;;;;;;;;;20.00;99.90;;;;;;5033027;28;37593;-93
2023/07/15 04:11:23;;;;;;;4.13;1.95;;;20.00;99.90;;;;;;5048601;28;38000;-94
2023/07/15 04:13:52;;;;;;;2.83;1.42;;;20.10;99.90;;;;;;5023798;28;20046;-92
2023/07/15 04:16:28;;;;;;;2.45;1.80;;;20.10;99.90;;;;;;5047271;28;36161;-92
2023/07/15 04:19:12;;;;;;;4.00;1.70;;;20.10;99.90;;;;;;5032772;28;38009;-91
2023/07/15 04:21:39;;;;;;;4.40;1.50;;;20.10;99.90;;;;;;5055387;28;47207;-92
2023/07/15 04:24:06;;;;;;;2.83;1.90;;;20.10;99.90;;;;;;5045103;28;37249;-91
2023/07/15 04:26:32;;;;;;;4.72;1.90;;;20.10;99.90;;;;;;5028952;28;36378;-92
2023/07/15 04:28:58;;;;;;;5.25;1.85;;;20.10;99.90;;;;;;5031074;28;40248;-92
2023/07/15 04:31:26;;;;;;;5.75;2.15;;;20.10;99.90;;;;;;5032054;28;37169;-92
2023/07/15 04:33:58;;;;;;;6.82;2.47;;;20.00;99.90;;;;;;5034137;28;38386;-92
2023/07/15 04:36:25;;;;;;;7.35;2.40;;;20.10;99.90;;;;;;5021918;28;37272;-92
2023/07/15 04:38:51;;;;;;;9.00;2.33;;;20.00;99.90;;;;;;5041125;28;37931;-93
2023/07/15 04:41:28;;;;;;;10.90;2.85;;;20.00;99.90;;;;;;5032646;28;37568;-93
2023/07/15 04:43:58;;;;;;;5.20;2.15;;;19.90;99.90;;;;;;5032796;28;38563;-92
2023/07/15 04:46:24;;;;;;;8.68;2.47;;;20.00;99.90;;;;;;5031635;28;36055;-93
2023/07/15 04:48:51;;;;;;;7.50;2.10;;;19.90;99.90;;;;;;5049337;28;39241;-92
2023/07/15 04:51:23;;;;;;;8.95;1.98;;;19.90;99.90;;;;;;5032000;28;37302;-92
2023/07/15 04:53:49;;;;;;;6.18;2.05;;;19.90;99.90;;;;;;5031693;28;37022;-91
2023/07/15 04:56:15;;;;;;;8.30;2.10;;;19.90;99.90;;;;;;5043361;28;37033;-92
2023/07/15 04:58:43;;;;;;;5.57;2.10;;;20.00;99.90;;;;;;5015334;28;37625;-92
2023/07/15 05:01:20;;;;;;;5.90;2.00;;;19.90;99.90;;;;;;5021432;28;38666;-91
2023/07/15 05:03:56;;;;;;;6.63;2.15;;;20.00;99.90;;;;;;5015744;28;37289;-91
2023/07/15 05:06:25;;;;;;;3.83;1.60;;;20.00;99.90;;;;;;5048714;28;36378;-90
2023/07/15 05:08:54;;;;;;;7.25;1.80;;;19.90;99.90;;;;;;5032056;28;39396;-91
2023/07/15 05:11:28;;;;;;;4.25;1.60;;;19.90;99.90;;;;;;5030490;28;37478;-92
2023/07/15 05:13:55;;;;;;;5.80;1.95;;;19.90;99.90;;;;;;5051053;28;37380;-92
2023/07/15 05:16:28;;;;;;;3.78;1.25;;;20.00;99.90;;;;;;5030593;28;37585;-92
2023/07/15 05:18:56;;;;;;;5.50;1.80;;;20.00;99.90;;;;;;5027670;28;38614;-93
2023/07/15 05:21:44;;;;;;;3.72;1.30;;;20.00;99.90;;;;;;5030991;28;37816;-91
2023/07/15 05:24:18;;;;;;;4.13;1.70;;;20.00;99.90;;;;;;5030398;28;37698;-93
2023/07/15 05:26:46;;;;;;;5.90;1.50;;;19.90;99.90;;;;;;5031268;28;36420;-93
2023/07/15 05:29:28;;;;;;;7.15;1.70;;;20.00;99.90;;;;;;5011949;28;39430;-92
2023/07/15 05:31:57;;;;;;;6.50;1.65;;;20.00;99.90;;;;;;5013742;28;38659;-92
2023/07/15 05:34:24;;;;;;;6.50;1.80;;;20.00;99.90;;;;;;5029370;28;38361;-93
2023/07/15 05:36:50;;;;;;;6.57;1.90;;;20.00;99.90;;;;;;5011987;28;36090;-92
2023/07/15 05:39:19;;;;;;;3.10;1.42;;;20.00;99.90;;;;;;5027070;28;39281;-91
2023/07/15 05:41:45;;;;;;;4.95;1.33;;;20.00;99.90;;;;;;5037305;28;38477;-92
2023/07/15 05:44:11;;;;;;;1.77;1.00;;;19.90;99.90;;;;;;5053861;28;36768;-91
2023/07/15 05:47:02;;;;;;;2.47;0.98;;;19.80;99.90;;;;;;5025689;28;36839;-91
2023/07/15 05:49:32;;;;;;;2.25;1.30;;;19.90;99.90;;;;;;5052892;28;40075;-91
2023/07/15 05:51:59;;;;;;;2.58;0.98;;;19.80;99.90;;;;;;5034944;28;38255;-91
2023/07/15 05:54:26;;;;;;;1.67;0.80;;;19.80;99.90;;;;;;5022877;28;37728;-92
2023/07/15 05:56:52;;;;;;;1.95;0.85;;;19.80;99.90;;;;;;5036241;28;38160;-92
2023/07/15 05:59:19;;;;;;;1.70;0.93;;;19.80;99.90;;;;;;5033973;28;39092;-92
2023/07/15 06:01:58;;;;;;;1.75;0.90;;;19.80;99.90;;;;;;5034744;28;37161;-92
2023/07/15 06:04:24;;;;;;;2.75;0.80;;;19.80;99.90;;;;;;5034081;28;38663;-91
2023/07/15 06:06:50;;;;;;;1.75;0.90;;;19.90;99.90;;;;;;5034258;28;36403;-90
2023/07/15 06:09:26;;;;;;;1.13;0.80;;;20.10;99.90;;;;;;5033547;28;38811;-91
2023/07/15 06:11:53;;;;;;;4.72;1.20;;;20.20;99.90;;;;;;5033826;28;39494;-95
2023/07/15 06:14:19;;;;;;;3.47;1.45;;;20.20;98.20;;;;;;5034419;28;37303;-92
2023/07/15 06:16:46;;;;;;;2.35;0.95;;;20.20;98.20;;;;;;5033965;28;36233;-91
2023/07/15 06:19:13;;;;;;;1.73;1.00;;;20.20;98.70;;;;;;5033856;28;37824;-91
2023/07/15 06:21:40;;;;;;;5.10;1.00;;;20.30;99.90;;;;;;5046787;28;37970;-91
2023/07/15 06:24:21;;;;;;;3.85;1.10;;;20.40;99.90;;;;;;5034237;28;37319;-90
2023/07/15 06:26:47;;;;;;;4.38;1.00;;;20.40;99.90;;;;;;5036727;28;36732;-90
2023/07/15 06:29:13;;;;;;;3.47;0.88;;;20.30;99.90;;;;;;5052256;28;39434;-94
2023/07/15 06:31:39;;;;;;;2.55;0.75;;;20.40;92.70;;;;;;5036467;28;38678;-87
2023/07/15 06:34:05;;;;;;;4.22;1.02;;;20.80;94.20;;;;;;5038226;28;38166;-91
2023/07/15 06:36:31;;;;;;;1.90;0.90;;;20.90;92.30;;;;;;5033478;28;37125;-90
2023/07/15 06:38:57;;;;;;;2.55;1.17;;;20.80;67.70;;;;;;5051215;28;38200;-91
2023/07/15 06:41:24;;;;;;;2.97;1.00;;;20.70;84.00;;;;;;5044849;28;37627;-91
2023/07/15 06:43:50;;;;;;;3.88;1.05;;;20.60;81.40;;;;;;5031532;28;37695;-92
2023/07/15 06:46:16;;;;;;;3.95;1.10;;;20.60;86.40;;;;;;5028134;28;36500;-91
2023/07/15 06:48:44;;;;;;;3.30;1.35;;;20.60;81.70;;;;;;5030173;28;39007;-91
2023/07/15 06:51:14;;;;;;;1.80;1.10;;;20.70;74.40;;;;;;5030043;28;38069;-92
2023/07/15 06:53:44;;;;;;;3.05;0.80;;;20.90;82.30;;;;;;5034158;28;36958;-92
2023/07/15 06:56:10;;;;;;;4.82;1.33;;;21.00;76.70;;;;;;5026177;28;36608;-91
2023/07/15 06:58:44;;;;;;;1.75;1.08;;;21.00;79.10;;;;;;5033409;28;40311;-91
2023/07/15 07:01:10;;;;;;;2.90;0.98;;;21.00;77.30;;;;;;5035239;28;38497;-91
2023/07/15 07:03:40;;;;;;;2.08;0.70;;;21.10;91.60;;;;;;5035647;28;37022;-93
2023/07/15 07:06:06;;;;;;;3.50;1.10;;;21.20;85.10;;;;;;5037549;28;38301;-91
2023/07/15 07:08:32;;;;;;;1.90;0.80;;;21.30;74.70;;;;;;5037012;28;39280;-92
2023/07/15 07:10:58;;;;;;;0.77;0.70;;;21.30;75.80;;;;;;5041559;28;38642;-92
2023/07/15 07:13:33;;;;;;;1.77;0.82;;;21.20;76.80;;;;;;5043611;28;36779;-92
2023/07/15 07:16:00;;;;;;;1.90;0.75;;;21.20;73.90;;;;;;5036141;28;37074;-91
2023/07/15 07:18:26;;;;;;;4.15;1.23;;;21.20;83.70;;;;;;5036117;28;38951;-92
2023/07/15 07:20:57;;;;;;;1.35;0.75;;;21.20;77.70;;;;;;5033502;28;37530;-91
2023/07/15 07:23:24;;;;;;;1.88;0.88;;;21.30;85.40;;;;;;5035813;28;37282;-93
2023/07/15 07:25:50;;;;;;;2.25;1.30;;;21.30;81.50;;;;;;5036518;28;36237;-93
2023/07/15 07:28:16;;;;;;;2.65;1.02;;;21.40;90.20;;;;;;5033244;28;38078;-91
2023/07/15 07:30:42;;;;;;;3.13;1.05;;;21.80;93.50;;;;;;5033833;28;38192;-91
2023/07/15 07:33:11;;;;;;;3.28;1.10;;;21.90;87.90;;;;;;5034026;28;37081;-91
2023/07/15 07:35:37;;;;;;;2.15;0.80;;;22.00;87.60;;;;;;5037013;28;37887;-92
2023/07/15 07:38:03;;;;;;;2.30;1.00;;;21.90;64.20;;;;;;5026857;28;37889;-91
2023/07/15 07:40:39;;;;;;;3.08;1.05;;;21.60;59.50;;;;;;5032571;28;37088;-92
2023/07/15 07:43:06;;;;;;;1.67;1.08;;;21.60;77.50;;;;;;5046835;28;37128;-90
2023/07/15 07:45:33;;;;;;;2.40;1.00;;;21.70;67.40;;;;;;5032067;28;38349;-90
2023/07/15 07:48:20;;;;;;;3.63;1.00;;;21.80;58.80;;;;;;5033892;28;37846;-93
2023/07/15 07:50:52;;;;;;;2.20;1.42;;;21.70;56.00;;;;;;5033544;28;47446;-90
2023/07/15 07:53:18;;;;;;;1.30;1.02;;;21.60;55.40;;;;;;5033684;28;37026;-90
2023/07/15 07:55:45;;;;;;;3.47;1.15;;;21.60;69.40;;;;;;5033351;28;37993;-91
2023/07/15 07:58:11;;;;;;;2.63;1.25;;;21.70;53.90;;;;;;5031395;28;37522;-92
2023/07/15 08:00:37;;;;;;;2.15;1.00;;;21.40;49.90;;;;;;5030142;28;37555;-93
2023/07/15 08:03:03;;;;;;;3.85;1.30;;;21.40;51.10;;;;;;5044131;28;38880;-90
2023/07/15 08:05:29;;;;;;;2.72;1.20;;;21.50;67.10;;;;;;5030534;28;36181;-91
2023/07/15 08:07:57;;;;;;;2.70;1.00;;;21.60;59.40;;;;;;5032988;28;38755;-91
2023/07/15 08:10:24;;;;;;;3.22;1.27;;;21.70;62.10;;;;;;5032701;28;37510;-89
2023/07/15 08:12:50;;;;;;;2.72;1.00;;;21.80;56.00;;;;;;5033220;28;37943;-91
2023/07/15 08:15:26;;;;;;;3.30;1.30;;;21.50;54.30;;;;;;5032071;28;36738;-93
2023/07/15 08:17:52;;;;;;;2.05;1.20;;;21.50;52.40;;;;;;5032223;28;39737;-88
2023/07/15 08:20:24;;;;;;;5.97;1.48;;;21.60;52.50;;;;;;5034313;28;38251;-93
2023/07/15 08:22:51;;;;;;;4.80;1.30;;;21.70;49.10;;;;;;5049126;28;37016;-92
2023/07/15 08:25:17;;;;;;;3.78;1.50;;;22.00;73.50;;;;;;5033128;28;37491;-91
2023/07/15 08:27:43;;;;;;;3.65;1.27;;;22.20;51.70;;;;;;5048876;28;38049;-89
2023/07/15 08:30:10;;;;;;;1.42;0.90;;;22.50;59.80;;;;;;5031771;28;37374;-91
2023/07/15 08:32:36;;;;;;;3.47;1.08;;;22.40;46.50;;;;;;5031135;28;36838;-91
2023/07/15 08:35:04;;;;;;;3.03;1.30;;;22.20;50.10;;;;;;5043768;28;36380;-90
2023/07/15 08:37:30;;;;;;;2.70;1.02;;;22.30;47.60;;;;;;5024068;28;46789;-92
2023/07/15 08:39:58;;;;;;;1.85;1.10;;;22.20;46.20;;;;;;5049833;28;37418;-93
2023/07/15 08:42:24;;;;;;;3.03;1.67;;;22.10;41.60;;;;;;5032690;28;37044;-92
2023/07/15 08:44:51;;;;;;;3.40;1.20;;;22.20;47.80;;;;;;5033073;28;37320;-93
2023/07/15 08:47:25;;;;;;;3.80;1.35;;;22.30;42.90;;;;;;5029219;28;37767;-92
2023/07/15 08:49:53;;;;;;;4.07;1.30;;;22.40;41.30;;;;;;5032472;28;38712;-92
2023/07/15 08:52:23;;;;;;;2.40;1.08;;;22.60;52.60;;;;;;5031141;28;37193;-90
2023/07/15 08:55:00;;;;;;;6.40;1.27;;;22.70;53.20;;;;;;5032243;28;36326;-91
2023/07/15 08:57:26;;;;;;;2.15;1.15;;;22.80;51.80;;;;;;5028276;28;37374;-89
2023/07/15 08:59:58;;;;;;;1.95;0.98;;;22.60;49.70;;;;;;5058875;28;37775;-92
2023/07/15 09:02:24;;;;;;;1.38;0.93;;;22.60;57.00;;;;;;5026210;28;36971;-88
2023/07/15 09:04:50;;;;;;;2.40;1.20;;;22.40;33.80;;;;;;5017070;28;37009;-95
2023/07/15 09:07:26;;;;;;;2.80;1.23;;;22.10;47.00;;;;;;5029623;28;37554;-90
2023/07/15 09:09:53;;;;;;;2.63;1.30;;;22.20;41.30;;;;;;5029230;28;38099;-90
2023/07/15 09:12:26;;;;;;;3.08;1.40;;;22.20;44.50;;;;;;5038071;28;38018;-91
2023/07/15 09:14:53;;;;;;;2.97;1.30;;;22.10;40.20;;;;;;5036781;28;37915;-90
2023/07/15 09:17:20;;;;;;;1.98;1.30;;;22.40;62.40;;;;;;5053895;28;38103;-90
2023/07/15 09:19:47;;;;;;;1.80;1.17;;;22.60;32.90;;;;;;5035753;28;37369;-91
2023/07/15 09:22:15;;;;;;;6.85;1.50;;;22.70;16.30;;;;;;5034780;28;37139;-88
2023/07/15 09:24:41;;;;;;;2.50;1.10;;;22.90;1.00;;;;;;5035441;28;37158;-91
2023/07/15 09:27:15;;;;;;;3.38;0.98;;;22.90;1.00;;;;;;5042842;28;38098;-93
2023/07/15 09:29:51;;;;;;;2.17;1.02;;;22.90;1.00;;;;;;5056547;28;39354;-93
2023/07/15 09:32:26;;;;;;;2.83;1.10;;;23.00;1.00;;;;;;5037619;28;38095;-93
2023/07/15 09:34:52;;;;;;;5.05;1.20;;;23.20;1.00;;;;;;5038223;28;35806;-90
2023/07/15 09:37:31;;;;;;;2.63;1.23;;;23.10;1.00;;;;;;5054980;28;38657;-90
2023/07/15 09:40:00;;;;;;;3.90;1.23;;;22.90;1.00;;;;;;5024372;28;37318;-92
2023/07/15 09:42:29;;;;;;;5.28;1.00;;;22.60;1.00;;;;;;5037301;28;37368;-92
2023/07/15 09:44:55;;;;;;;2.38;1.30;;;22.60;1.00;;;;;;5045696;28;36085;-92
2023/07/15 09:47:35;;;;;;;4.50;1.20;;;22.40;1.00;;;;;;5020937;28;38731;-85
2023/07/15 09:50:04;;;;;;;2.15;1.08;;;22.40;1.00;;;;;;5038712;28;37312;-90
2023/07/15 09:52:31;;;;;;;3.72;0.95;;;22.60;1.00;;;;;;5037138;28;46879;-94
2023/07/15 09:54:57;;;;;;;4.78;1.20;;;22.60;1.00;;;;;;5038116;28;36981;-92
2023/07/15 09:57:24;;;;;;;5.65;1.25;;;22.70;1.00;;;;;;5054791;28;37934;-88
2023/07/15 09:59:54;;;;;;;5.07;1.40;;;23.10;1.00;;;;;;5050201;28;37661;-88
2023/07/15 10:02:37;;;;;;;3.90;1.33;;;23.20;1.00;;;;;;5018531;28;37419;-92
2023/07/15 10:05:05;;;;;;;5.78;1.30;;;23.40;1.00;;;;;;5038047;28;36865;-91
2023/07/15 10:07:32;;;;;;;5.35;1.25;;;23.40;1.00;;;;;;5036784;28;47249;-91
2023/07/15 10:10:10;;;;;;;5.30;1.42;;;23.70;1.00;;;;;;5038097;28;37474;-87
2023/07/15 10:12:37;;;;;;;3.97;1.15;;;23.80;1.00;;;;;;5036481;28;47208;-82
2023/07/15 10:15:07;;;;;;;4.10;1.30;;;24.30;1.00;;;;;;5051243;28;36136;-91
2023/07/15 10:17:37;;;;;;;2.97;1.25;;;24.70;1.00;;;;;;5032773;28;46879;-94
2023/07/15 10:20:10;;;;;;;2.92;1.10;;;25.10;1.00;;;;;;5051531;28;37217;-89
2023/07/15 10:22:37;;;;;;;2.22;1.00;;;25.20;1.00;;;;;;5038856;28;46518;-91
2023/07/15 10:25:07;;;;;;;1.95;1.10;;;24.80;1.00;;;;;;5034624;28;36347;-89
2023/07/15 10:27:39;;;;;;;8.13;1.50;;;25.20;1.00;;;;;;5033590;28;47380;-90
2023/07/15 10:30:28;;;;;;;4.55;1.60;;;25.00;1.00;;;;;;5032650;28;37554;-86
2023/07/15 10:33:04;;;;;;;2.22;1.10;;;25.20;1.00;;;;;;5015092;28;38389;-91
2023/07/15 10:35:40;;;;;;;3.08;1.50;;;25.30;1.00;;;;;;5030388;28;48385;-94
2023/07/15 10:38:24;;;;;;;3.05;1.45;;;25.70;1.00;;;;;;5028384;28;39165;-90
2023/07/15 10:41:01;;;;;;;4.32;1.33;;;26.00;1.00;;;;;;5051641;28;37337;-93
2023/07/15 10:43:40;;;;;;;2.22;1.10;;;25.90;1.00;;;;;;5035077;28;47567;-93
2023/07/15 10:46:16;;;;;;;3.88;1.50;;;25.70;99.90;;;;;;5025022;28;36303;-96
2023/07/15 10:48:44;;;;;;;4.68;1.30;;;25.10;1.00;;;;;;5032874;28;37892;-86
2023/07/15 10:51:12;;;;;;;3.90;1.60;;;25.10;1.00;;;;;;5031460;28;37587;-91
2023/07/15 10:53:38;;;;;;;4.55;1.30;;;25.10;1.00;;;;;;5042368;28;37101;-93
2023/07/15 10:56:06;;;;;;;4.18;1.60;;;25.00;1.00;;;;;;5047463;28;35990;-90
2023/07/15 10:58:33;;;;;;;1.70;1.10;;;24.90;1.00;;;;;;5034220;28;38106;-92
2023/07/15 11:01:07;;;;;;;2.78;1.60;;;25.20;1.00;;;;;;5031237;28;37279;-85
2023/07/15 11:03:39;;;;;;;2.53;1.40;;;25.30;1.00;;;;;;5032334;28;48718;-90
2023/07/15 11:06:05;;;;;;;4.40;1.40;;;25.30;1.00;;;;;;5036507;28;37032;-93
2023/07/15 11:08:32;;;;;;;3.38;1.60;;;25.30;1.00;;;;;;5029781;28;37307;-85
2023/07/15 11:11:01;;;;;;;3.55;1.60;;;25.00;1.00;;;;;;5030918;28;38357;-85
2023/07/15 11:13:28;;;;;;;5.00;1.52;;;24.70;1.00;;;;;;5029374;28;46681;-91
2023/07/15 11:15:55;;;;;;;3.22;1.50;;;24.80;1.00;;;;;;5031543;28;37031;-91
2023/07/15 11:18:23;;;;;;;5.07;1.40;;;25.30;1.00;;;;;;5031257;28;37641;-86
2023/07/15 11:20:52;;;;;;;2.17;1.48;;;25.60;99.90;;;;;;5048366;28;37277;-95
2023/07/15 11:23:30;;;;;;;5.35;1.65;;;25.20;1.00;;;;;;5032469;28;37253;-89
2023/07/15 11:26:06;;;;;;;4.75;1.42;;;25.70;1.00;;;;;;5032817;28;36284;-92
2023/07/15 11:28:56;;;;;;;3.13;1.58;;;25.30;1.00;;;;;;5035547;28;48531;-92
2023/07/15 11:31:41;;;;;;;5.35;1.60;;;24.80;1.00;;;;;;5035501;28;37328;-92
2023/07/15 11:34:09;;;;;;;3.03;1.25;;;25.20;1.00;;;;;;5049636;28;38053;-93
2023/07/15 11:36:39;;;;;;;3.55;1.20;;;25.10;1.00;;;;;;5033393;28;37368;-93
2023/07/15 11:39:06;;;;;;;2.05;1.40;;;25.00;1.00;;;;;;5027654;28;39150;-88
2023/07/15 11:41:33;;;;;;;5.05;1.50;;;25.20;1.00;;;;;;5038771;28;37097;-87
2023/07/15 11:44:00;;;;;;;3.97;1.30;;;25.20;1.00;;;;;;5026519;28;38488;-88
2023/07/15 11:46:28;;;;;;;2.35;1.30;;;25.90;1.00;;;;;;5021409;28;36132;-88
2023/07/15 11:48:59;;;;;;;3.85;1.30;;;26.00;1.00;;;;;;5030118;28;38757;-88
2023/07/15 11:51:25;;;;;;;3.42;1.40;;;25.90;1.00;;;;;;5031217;28;38957;-88
2023/07/15 11:53:55;;;;;;;4.28;1.63;;;26.30;1.00;;;;;;5032528;28;37924;-86
2023/07/15 11:56:34;;;;;;;2.65;1.33;;;26.30;1.00;;;;;;5030754;28;36412;-85
2023/07/15 11:59:06;;;;;;;3.05;1.40;;;26.50;99.90;;;;;;5025735;28;38444;-88
2023/07/15 12:01:32;;;;;;;3.35;1.30;;;26.50;99.90;;;;;;5031003;28;47164;-87
2023/07/15 12:03:59;;;;;;;3.63;1.60;;;26.70;99.90;;;;;;5027801;28;36999;-85
2023/07/15 12:06:28;;;;;;;5.13;1.67;;;26.30;1.00;;;;;;5025628;28;36253;-81
2023/07/15 12:09:05;;;;;;;2.03;1.52;;;26.10;99.90;;;;;;5030569;28;37594;-88
2023/07/15 12:11:34;;;;;;;2.67;1.60;;;26.40;99.90;;;;;;5031998;28;47856;-87
2023/07/15 12:14:02;;;;;;;3.13;1.33;;;26.70;1.00;;;;;;5030663;28;38015;-81
2023/07/15 12:16:30;;;;;;;3.85;1.77;;;26.30;99.90;;;;;;5038311;28;47415;-89
2023/07/15 12:18:58;;;;;;;3.42;2.05;;;25.90;99.90;;;;;;5032922;28;38146;-86
2023/07/15 12:21:25;;;;;;;2.30;1.40;;;26.20;99.90;;;;;;5030508;28;38098;-86
2023/07/15 12:23:51;;;;;;;5.63;1.38;;;26.50;10.40;;;;;;5027881;28;38632;-85
2023/07/15 12:26:19;;;;;;;3.55;1.80;;;27.10;99.90;;;;;;5029119;28;37491;-83
2023/07/15 12:28:46;;;;;;;2.78;1.67;;;27.40;1.00;;;;;;5027795;28;39094;-82
2023/07/15 12:31:14;;;;;;;4.45;1.40;;;27.30;99.90;;;;;;5029390;28;38629;-81
2023/07/15 12:33:41;;;;;;;3.53;1.25;;;26.70;1.00;;;;;;5027133;28;38692;-85
2023/07/15 12:36:12;;;;;;;5.45;1.73;;;26.90;1.00;;;;;;5032097;28;36017;-82
2023/07/15 12:38:38;;;;;;;2.50;1.20;;;26.70;1.00;;;;;;5031442;28;37524;-84
2023/07/15 12:41:06;;;;;;;2.22;1.23;;;26.80;1.00;;;;;;5041674;28;37388;-84
2023/07/15 12:43:32;;;;;;;3.17;1.38;;;27.00;1.00;;;;;;5027497;28;37387;-78
2023/07/15 12:46:00;;;;;;;4.38;1.88;;;26.60;1.00;;;;;;5029779;28;37775;-85
2023/07/15 12:48:26;;;;;;;2.58;1.20;;;26.40;1.00;;;;;;5021779;28;38999;-85
2023/07/15 12:50:53;;;;;;;3.25;1.52;;;26.30;1.00;;;;;;5043400;28;39932;-85
2023/07/15 12:53:21;;;;;;;1.58;1.02;;;26.60;99.90;;;;;;5029175;28;37221;-87
2023/07/15 12:55:49;;;;;;;2.45;1.23;;;26.80;1.00;;;;;;5028319;28;37518;-86
2023/07/15 12:58:16;;;;;;;3.72;1.20;;;26.90;1.00;;;;;;5026849;28;39039;-83
2023/07/15 13:00:42;;;;;;;2.75;1.30;;;26.50;1.00;;;;;;5022655;28;38557;-85
2023/07/15 13:03:09;;;;;;;4.00;1.30;;;26.10;99.90;;;;;;5037914;28;37308;-84
2023/07/15 13:05:36;;;;;;;4.13;1.05;;;25.90;1.00;;;;;;5027556;28;37493;-85